Impacts METAR Board
IDs:

KDCA - Washington/National, VA, US

Updated at: 0700 UTC 24 Sep 2018
Potential Impact None Slight Moderate High
Time 23/19Z 23/20Z 23/21Z 23/22Z 23/23Z 24/00Z 24/01Z 24/02Z 24/03Z 24/04Z 24/05Z 24/06Z 24/07Z
Temp64 64 64 64 64 63 63 64 64 64 64 63 63
Dewpt61 61 61 60 61 60 60 60 61 61 61 61 60
Altim30.20 30.19 30.19 30.21 30.21 30.22 30.23 30.24 30.25 30.25 30.26 30.26 30.26
VIS3 8 7 7 3 5 10 10 5 5 4 7 5
CIG8 8 8 8 7 9 7 7 6 5 7 6 6
CoverOVCOVCOVCOVCOVCOVCOVCOVCOVCOVCOVCOVCOVC
FltCatIFRIFRIFRIFRIFRIFRIFRIFRIFRIFRIFRIFRIFR
WX-RA BR-RA-RA-RA-RA BR-RA BR-----DZ BR-DZ BR-DZ BR-RA-RA BR
WDir30304020203020202040202030
WSpd8 10 9 9 11 9 8 8 8 7 9 9 7
WGst-- -- -- -- -- -- -- -- -- -- -- -- --
Raw hourly METARs
KDCA 231859Z 03008KT 3SM -RA BR OVC008 18/16 A3020 RMK AO2 CIG 005V013 P0000 T01780161 $
KDCA 231952Z 03010KT 8SM -RA OVC008 18/16 A3019 RMK AO2 RAE16B36 CIG 006V012 SLP223 P0000 T01780161 $
KDCA 232055Z 04009KT 7SM -RA BKN008 OVC012 18/16 A3019 RMK AO2 CIG 006V010 P0000 T01780161 $
KDCA 232158Z 02009KT 7SM -RA OVC008 18/16 A3021 RMK AO2 RAB54 CIG 006V011 P0000 T01780156 $
KDCA 232257Z 02011KT 3SM -RA BR BKN007 OVC014 18/16 A3021 RMK AO2 P0001 T01780161 $
KDCA 240003Z 03009KT 5SM -RA BR OVC009 17/16 A3022 RMK AO2 P0001 T01720156 $
KDCA 240101Z 02008KT 10SM OVC007 17/16 A3023 RMK AO2 CIG 006V010 T01720156 $
KDCA 240152Z 02008KT 10SM OVC007 18/16 A3024 RMK AO2 SLP240 T01780156 $
KDCA 240252Z 02008KT 5SM -DZ BR OVC006 18/16 A3025 RMK AO2 RAB42E51DZB51 SLP243 P0000 60002 T01780161 53011 $
KDCA 240352Z 04007KT 5SM -DZ BR OVC005 18/16 A3025 RMK AO2 SLP242 P0002 T01780161 $
KDCA 240452Z 02009KT 4SM -DZ BR OVC007 18/16 A3026 RMK AO2 SLP246 P0002 T01780161 401890161 $
KDCA 240552Z 02009KT 7SM -RA OVC006 17/16 A3026 RMK AO2 DZE00RAB00 CIG 005V010 SLP245 P0004 60010 T01720161 10178 20172 53001 $
KDCA 240652Z 03007KT 5SM -RA BR OVC006 17/16 A3026 RMK AO2 RAE22B52DZB22E52 SLP244 P0000 T01720156 $



Page loaded:  07:10 UTC  |   12:10 AM Pacific  |   01:10 AM Mountain  |   02:10 AM Central  |   03:10 AM Eastern

 

ADVISORIES

FORECASTS

FORECASTS

OBSERVATIONS

USER TOOLS

ABOUT US